createdAt,value
2017-10-28T00:00:05.720Z,97721.09
2017-10-28T00:02:32.264Z,97715.09
2017-10-28T00:04:58.362Z,97715.88
2017-10-28T00:07:24.486Z,97717.56
2017-10-28T00:09:50.579Z,97718.62
2017-10-28T00:12:16.647Z,97723.50
2017-10-28T00:14:43.093Z,97734.05
2017-10-28T00:17:09.228Z,97735.51
2017-10-28T00:19:35.278Z,97723.70
2017-10-28T00:22:01.362Z,97730.60
2017-10-28T00:24:27.471Z,97713.08
2017-10-28T00:26:53.943Z,97710.07
2017-10-28T00:29:20.047Z,97703.18
2017-10-28T00:31:52.262Z,97721.37
2017-10-28T00:34:24.855Z,97730.53
2017-10-28T00:36:51.002Z,97721.29
2017-10-28T00:39:17.083Z,97708.92
2017-10-28T00:41:43.155Z,97691.01
2017-10-28T00:44:09.218Z,97691.29
2017-10-28T00:46:35.658Z,97685.23
2017-10-28T00:49:01.753Z,97687.34
2017-10-28T00:51:27.841Z,97693.25
2017-10-28T00:53:53.939Z,97690.05
2017-10-28T00:56:20.051Z,97683.88
2017-10-28T00:58:46.502Z,97675.70
2017-10-28T01:01:12.575Z,97679.28
2017-10-28T01:03:38.655Z,97685.06
2017-10-28T01:06:04.752Z,97685.91
2017-10-28T01:08:30.843Z,97680.52
2017-10-28T01:10:57.304Z,97679.34
2017-10-28T01:13:23.391Z,97672.59
2017-10-28T01:15:49.473Z,97667.16
2017-10-28T01:18:15.531Z,97669.54
2017-10-28T01:20:41.607Z,97649.83
2017-10-28T01:23:08.091Z,97646.02
2017-10-28T01:25:34.154Z,97650.81
2017-10-28T01:28:00.257Z,97633.87
2017-10-28T01:30:26.378Z,97641.49
2017-10-28T01:32:52.467Z,97634.26
2017-10-28T01:35:18.918Z,97630.56
2017-10-28T01:37:45.042Z,97620.91
2017-10-28T01:40:11.163Z,97620.27
2017-10-28T01:42:37.231Z,97612.08
2017-10-28T01:45:03.334Z,97583.83
2017-10-28T01:47:29.708Z,97616.70
2017-10-28T01:49:55.771Z,97619.83
2017-10-28T01:52:21.811Z,97615.41
2017-10-28T01:54:47.906Z,97612.11
2017-10-28T01:57:13.987Z,97603.23
2017-10-28T01:59:40.504Z,97600.00
2017-10-28T02:02:06.588Z,97584.08
2017-10-28T02:04:32.643Z,97594.16
2017-10-28T02:06:58.770Z,97577.03
2017-10-28T02:09:24.883Z,97576.45
2017-10-28T02:11:51.318Z,97570.19
2017-10-28T02:14:17.429Z,97572.89
2017-10-28T02:16:43.562Z,97569.16
2017-10-28T02:19:09.778Z,97562.67
2017-10-28T02:21:35.807Z,97563.70
2017-10-28T02:24:02.299Z,97567.98
2017-10-28T02:26:28.402Z,97562.22
2017-10-28T02:28:54.490Z,97562.73
2017-10-28T02:31:20.579Z,97559.32
2017-10-28T02:33:46.642Z,97553.67
2017-10-28T02:36:13.069Z,97545.45
2017-10-28T02:38:39.183Z,97547.18
2017-10-28T02:41:05.261Z,97543.05
2017-10-28T02:43:31.354Z,97537.29
2017-10-28T02:45:57.462Z,97519.13
2017-10-28T02:48:23.939Z,97525.54
2017-10-28T02:50:50.026Z,97520.06
2017-10-28T02:53:16.099Z,97520.23
2017-10-28T02:55:42.136Z,97516.28
2017-10-28T02:58:08.202Z,97507.81
2017-10-28T03:00:34.631Z,97500.94
2017-10-28T03:03:00.725Z,97501.72
2017-10-28T03:05:26.831Z,97501.61
2017-10-28T03:07:52.949Z,97496.06
2017-10-28T03:10:18.960Z,97490.16
2017-10-28T03:12:45.477Z,97493.96
2017-10-28T03:15:11.606Z,97490.16
2017-10-28T03:17:37.658Z,97484.39
2017-10-28T03:20:03.934Z,97495.67
2017-10-28T03:22:30.016Z,97497.67
2017-10-28T03:24:56.414Z,97497.38
2017-10-28T03:27:22.535Z,97500.80
2017-10-28T03:29:48.622Z,97506.99
2017-10-28T03:32:14.735Z,97501.01
2017-10-28T03:34:40.834Z,97491.30
2017-10-28T03:37:06.883Z,97492.47
2017-10-28T03:39:32.896Z,97486.20
2017-10-28T03:41:58.956Z,97475.12
2017-10-28T03:44:25.034Z,97460.79
2017-10-28T03:46:51.186Z,97462.89
2017-10-28T03:49:17.675Z,97462.56
2017-10-28T03:51:43.762Z,97456.80
2017-10-28T03:54:09.838Z,97459.97
2017-10-28T03:56:36.274Z,97466.12
2017-10-28T03:59:02.379Z,97465.34
2017-10-28T04:01:28.446Z,97468.87
2017-10-28T04:03:54.880Z,97469.02
2017-10-28T04:06:20.955Z,97486.02
2017-10-28T04:08:47.031Z,97483.64
2017-10-28T04:11:13.134Z,97477.45
2017-10-28T04:13:39.247Z,97484.45
2017-10-28T04:16:05.704Z,97486.27
2017-10-28T04:18:31.799Z,97475.84
2017-10-28T04:20:57.893Z,97453.53
2017-10-28T04:23:23.959Z,97453.20
2017-10-28T04:25:50.031Z,97450.93
2017-10-28T04:28:16.551Z,97435.44
2017-10-28T04:30:42.616Z,97439.17
2017-10-28T04:33:08.672Z,97439.92
2017-10-28T04:35:34.755Z,97444.69
2017-10-28T04:38:00.790Z,97429.68
2017-10-28T04:40:27.278Z,97424.55
2017-10-28T04:42:53.358Z,97418.89
2017-10-28T04:45:19.454Z,97415.33
2017-10-28T04:47:45.873Z,97421.67
2017-10-28T04:50:11.961Z,97419.63
2017-10-28T04:52:38.061Z,97436.18
2017-10-28T04:55:04.455Z,97445.77
2017-10-28T04:57:30.550Z,97450.22
2017-10-28T04:59:56.657Z,97458.94
2017-10-28T05:02:22.758Z,97454.13
2017-10-28T05:04:48.834Z,97449.19
2017-10-28T05:07:15.283Z,97414.93
2017-10-28T05:09:41.377Z,97399.91
2017-10-28T05:12:07.441Z,97409.28
2017-10-28T05:14:33.563Z,97409.11
2017-10-28T05:16:59.663Z,97405.73
2017-10-28T05:19:26.045Z,97400.32
2017-10-28T05:21:52.123Z,97403.84
2017-10-28T05:24:18.227Z,97407.97
2017-10-28T05:26:44.435Z,97403.06
2017-10-28T05:29:10.518Z,97400.28
2017-10-28T05:31:36.998Z,97402.84
2017-10-28T05:34:03.051Z,97397.44
2017-10-28T05:36:29.087Z,97388.11
2017-10-28T05:38:55.193Z,97390.08
2017-10-28T05:41:21.233Z,97380.86
2017-10-28T05:43:47.610Z,97368.38
2017-10-28T05:46:13.647Z,97375.70
2017-10-28T05:48:39.796Z,97370.02
2017-10-28T05:51:05.923Z,97361.00
2017-10-28T05:53:32.006Z,97361.69
2017-10-28T05:55:58.395Z,97364.31
2017-10-28T05:58:24.462Z,97370.98
2017-10-28T06:00:50.550Z,97386.56
2017-10-28T06:03:16.639Z,97378.05
2017-10-28T06:05:42.707Z,97379.19
2017-10-28T06:08:09.131Z,97372.75
2017-10-28T06:10:35.223Z,97376.84
2017-10-28T06:13:01.308Z,97373.53
2017-10-28T06:15:27.419Z,97377.52
2017-10-28T06:17:53.522Z,97377.45
2017-10-28T06:20:20.082Z,97369.50
2017-10-28T06:22:46.170Z,97361.94
2017-10-28T06:25:12.293Z,97360.77
2017-10-28T06:27:38.426Z,97369.89
2017-10-28T06:30:04.541Z,97374.55
2017-10-28T06:32:31.000Z,97372.36
2017-10-28T06:34:57.043Z,97373.50
2017-10-28T06:37:23.112Z,97374.55
2017-10-28T06:39:49.192Z,97378.23
2017-10-28T06:42:15.277Z,97376.37
2017-10-28T06:44:41.749Z,97369.41
2017-10-28T06:47:07.898Z,97365.84
2017-10-28T06:49:33.993Z,97376.95
2017-10-28T06:52:00.087Z,97360.27
2017-10-28T06:54:26.212Z,97363.86
2017-10-28T06:56:52.688Z,97363.50
2017-10-28T06:59:18.747Z,97355.75
2017-10-28T07:01:44.843Z,97356.73
2017-10-28T07:04:11.015Z,97350.16
2017-10-28T07:06:37.143Z,97342.86
2017-10-28T07:09:03.637Z,97340.71
2017-10-28T07:11:29.683Z,97335.98
2017-10-28T07:13:55.758Z,97314.96
2017-10-28T07:16:21.865Z,97320.41
2017-10-28T07:18:48.402Z,97317.78
2017-10-28T07:21:14.775Z,97333.83
2017-10-28T07:23:40.863Z,97346.70
2017-10-28T07:26:06.959Z,97315.30
2017-10-28T07:28:33.092Z,97313.57
2017-10-28T07:30:59.171Z,97274.50
2017-10-28T07:33:25.583Z,97280.84
2017-10-28T07:35:51.650Z,97305.42
2017-10-28T07:38:17.724Z,97287.23
2017-10-28T07:40:43.827Z,97297.66
2017-10-28T07:43:09.919Z,97309.77
2017-10-28T07:45:36.360Z,97300.94
2017-10-28T07:48:02.447Z,97298.51
2017-10-28T07:50:28.573Z,97299.43
2017-10-28T07:52:54.667Z,97293.14
2017-10-28T07:55:20.760Z,97307.33
2017-10-28T07:57:47.211Z,97296.93
2017-10-28T08:00:13.843Z,97290.94
2017-10-28T08:02:39.963Z,97283.77
2017-10-28T08:05:06.082Z,97283.23
2017-10-28T08:07:32.162Z,97285.30
2017-10-28T08:09:58.651Z,97297.81
2017-10-28T08:12:24.720Z,97295.57
2017-10-28T08:14:50.784Z,97301.43
2017-10-28T08:17:16.875Z,97302.21
2017-10-28T08:19:42.925Z,97295.44
2017-10-28T08:22:09.419Z,97295.69
2017-10-28T08:24:35.537Z,97286.31
2017-10-28T08:27:01.615Z,97276.65
2017-10-28T08:29:27.732Z,97277.23
2017-10-28T08:31:53.871Z,97266.89
2017-10-28T08:34:20.355Z,97268.06
2017-10-28T08:36:46.445Z,97252.54
2017-10-28T08:39:12.507Z,97249.94
2017-10-28T08:41:38.573Z,97253.11
2017-10-28T08:44:04.643Z,97247.74
2017-10-28T08:46:31.198Z,97243.42
2017-10-28T08:48:57.310Z,97250.28
2017-10-28T08:51:23.330Z,97255.27
2017-10-28T08:53:49.479Z,97252.39
2017-10-28T08:56:15.535Z,97257.86
2017-10-28T08:58:41.951Z,97249.58
2017-10-28T09:01:08.134Z,97249.63
2017-10-28T09:03:34.302Z,97263.83
2017-10-28T09:06:00.390Z,97251.72
2017-10-28T09:08:26.471Z,97248.69
2017-10-28T09:10:52.989Z,97243.22
2017-10-28T09:13:19.086Z,97229.48
2017-10-28T09:15:45.290Z,97225.70
2017-10-28T09:18:11.894Z,97212.08
2017-10-28T09:20:38.050Z,97212.76
2017-10-28T09:23:04.182Z,97232.77
2017-10-28T09:25:30.298Z,97228.80
2017-10-28T09:27:56.394Z,97233.41
2017-10-28T09:30:22.834Z,97234.91
2017-10-28T09:32:48.953Z,97244.23
2017-10-28T09:35:15.036Z,97234.84
2017-10-28T09:37:41.469Z,97223.06
2017-10-28T09:40:07.713Z,97228.89
2017-10-28T09:42:33.937Z,97222.98
2017-10-28T09:45:00.018Z,97216.01
2017-10-28T09:47:26.114Z,97223.41
2017-10-28T09:49:52.578Z,97218.34
2017-10-28T09:52:18.633Z,97195.63
2017-10-28T09:54:44.694Z,97202.53
2017-10-28T09:57:11.073Z,97205.80
2017-10-28T09:59:37.149Z,97195.92
2017-10-28T10:02:03.251Z,97186.00
2017-10-28T10:04:29.362Z,97176.48
2017-10-28T10:06:55.441Z,97163.02
2017-10-28T10:09:21.908Z,97154.81
2017-10-28T10:11:48.060Z,97156.28
2017-10-28T10:14:14.079Z,97156.39
2017-10-28T10:16:40.182Z,97147.72
2017-10-28T10:19:06.307Z,97131.33
2017-10-28T10:21:32.375Z,97130.66
2017-10-28T10:23:58.491Z,97121.75
2017-10-28T10:26:24.653Z,97119.66
2017-10-28T10:28:50.709Z,97098.33
2017-10-28T10:31:16.770Z,97098.80
2017-10-28T10:33:42.854Z,97094.14
2017-10-28T10:36:08.962Z,97090.09
2017-10-28T10:38:35.038Z,97095.05
2017-10-28T10:41:01.094Z,97098.73
2017-10-28T10:43:27.577Z,97094.78
2017-10-28T10:45:53.658Z,97088.69
2017-10-28T10:48:19.759Z,97103.80
2017-10-28T10:50:45.867Z,97099.13
2017-10-28T10:53:11.981Z,97079.08
2017-10-28T10:55:38.007Z,97095.83
2017-10-28T10:58:04.090Z,97080.89
2017-10-28T11:00:30.207Z,97081.67
2017-10-28T11:02:56.299Z,97083.23
2017-10-28T11:05:22.410Z,97067.25
2017-10-28T11:07:48.498Z,97059.00
2017-10-28T11:10:15.504Z,97058.45
2017-10-28T11:12:41.619Z,97047.39
2017-10-28T11:15:07.736Z,97027.09
2017-10-28T11:17:33.770Z,97052.84
2017-10-28T11:19:59.903Z,97056.70
2017-10-28T11:22:26.010Z,97071.00
2017-10-28T11:24:52.086Z,97057.58
2017-10-28T11:27:18.157Z,97036.73
2017-10-28T11:29:44.254Z,97022.42
2017-10-28T11:32:10.348Z,97036.73
2017-10-28T11:34:36.435Z,97042.94
2017-10-28T11:37:02.540Z,97023.80
2017-10-28T11:39:28.574Z,97029.07
2017-10-28T11:41:54.666Z,97027.27
2017-10-28T11:44:20.803Z,97022.60
2017-10-28T11:46:46.843Z,97019.94
2017-10-28T11:49:12.953Z,97001.39
2017-10-28T11:51:39.038Z,97015.59
2017-10-28T11:54:05.190Z,97006.01
2017-10-28T11:56:31.253Z,97013.91
2017-10-28T11:58:57.270Z,97003.94
2017-10-28T12:01:23.370Z,97002.53
2017-10-28T12:03:49.465Z,96997.11
2017-10-28T12:06:15.554Z,96986.69
2017-10-28T12:08:41.651Z,96992.83
2017-10-28T12:11:07.791Z,96991.27
2017-10-28T12:13:33.858Z,96988.33
2017-10-28T12:16:00.092Z,96975.84
2017-10-28T12:18:26.184Z,96978.06
2017-10-28T12:20:52.270Z,96983.94
2017-10-28T12:23:18.396Z,96977.05
2017-10-28T12:25:44.470Z,96977.91
2017-10-28T12:28:10.565Z,96969.83
2017-10-28T12:30:36.658Z,96976.08
2017-10-28T12:33:02.887Z,96959.55
2017-10-28T12:35:28.920Z,96958.50
2017-10-28T12:37:55.015Z,96949.06
2017-10-28T12:40:21.239Z,96949.63
2017-10-28T12:42:47.322Z,96943.39
2017-10-28T12:45:13.372Z,96947.86
2017-10-28T12:47:39.458Z,96948.02
2017-10-28T12:50:05.565Z,96943.64
2017-10-28T12:52:31.584Z,96948.67
2017-10-28T12:54:58.861Z,96939.78
2017-10-28T12:57:24.941Z,96941.62
2017-10-28T12:59:51.009Z,96919.76
2017-10-28T13:02:17.094Z,96926.66
2017-10-28T13:04:43.219Z,96924.56
2017-10-28T13:07:09.320Z,96926.14
2017-10-28T13:09:35.433Z,96928.93
2017-10-28T13:12:01.538Z,96910.00
2017-10-28T13:14:27.626Z,96923.48
2017-10-28T13:16:53.738Z,96930.48
2017-10-28T13:19:19.926Z,96925.52
2017-10-28T13:21:45.954Z,96922.55
2017-10-28T13:24:12.024Z,96918.39
2017-10-28T13:26:38.136Z,96915.28
2017-10-28T13:29:04.214Z,96901.00
2017-10-28T13:31:30.294Z,96906.66
2017-10-28T13:33:56.421Z,96924.88
2017-10-28T13:36:22.571Z,96920.05
2017-10-28T13:38:48.673Z,96925.34
2017-10-28T13:41:14.751Z,96921.33
2017-10-28T13:43:40.848Z,96927.62
2017-10-28T13:46:06.930Z,96926.25
2017-10-28T13:48:33.022Z,96916.43
2017-10-28T13:50:59.100Z,96899.89
2017-10-28T13:53:25.209Z,96904.69
2017-10-28T13:55:51.305Z,96903.94
2017-10-28T13:58:17.417Z,96906.24
2017-10-28T14:00:43.515Z,96897.74
2017-10-28T14:03:09.595Z,96897.66
2017-10-28T14:05:35.675Z,96893.29
2017-10-28T14:08:01.762Z,96899.78
2017-10-28T14:10:27.837Z,96911.05
2017-10-28T14:12:53.952Z,96895.14
2017-10-28T14:15:20.039Z,96881.37
2017-10-28T14:17:46.143Z,96887.94
2017-10-28T14:20:12.226Z,96886.90
2017-10-28T14:22:38.366Z,96880.45
2017-10-28T14:25:04.572Z,96884.08
2017-10-28T14:27:30.655Z,96872.53
2017-10-28T14:29:56.747Z,96868.19
2017-10-28T14:32:22.852Z,96865.45
2017-10-28T14:34:48.962Z,96851.14
2017-10-28T14:37:15.104Z,96857.96
2017-10-28T14:39:41.206Z,96851.91
2017-10-28T14:42:07.263Z,96851.30
2017-10-28T14:44:33.406Z,96853.59
2017-10-28T14:46:59.471Z,96851.50
2017-10-28T14:49:25.551Z,96866.38
2017-10-28T14:51:51.667Z,96858.63
2017-10-28T14:54:17.749Z,96858.66
2017-10-28T14:56:43.938Z,96865.39
2017-10-28T14:59:10.071Z,96862.04
2017-10-28T15:01:36.198Z,96855.70
2017-10-28T15:04:02.279Z,96843.47
2017-10-28T15:06:28.482Z,96828.98
2017-10-28T15:08:54.522Z,96837.13
2017-10-28T15:11:20.668Z,96830.84
2017-10-28T15:13:46.762Z,96859.66
2017-10-28T15:16:12.863Z,96836.55
2017-10-28T15:18:38.972Z,96846.31
2017-10-28T15:21:05.094Z,96834.45
2017-10-28T15:23:31.183Z,96836.31
2017-10-28T15:25:57.286Z,96823.63
2017-10-28T15:28:23.383Z,96822.28
2017-10-28T15:30:49.454Z,96829.11
2017-10-28T15:33:15.569Z,96823.36
2017-10-28T15:35:41.694Z,96803.48
2017-10-28T15:38:07.870Z,96824.53
2017-10-28T15:40:33.954Z,96808.11
2017-10-28T15:43:00.031Z,96804.75
2017-10-28T15:45:26.134Z,96797.48
2017-10-28T15:47:52.199Z,96800.56
2017-10-28T15:50:18.289Z,96781.54
2017-10-28T15:52:44.401Z,96780.47
2017-10-28T15:55:10.454Z,96773.78
2017-10-28T15:57:36.522Z,96794.70
2017-10-28T16:00:02.583Z,96789.95
2017-10-28T16:02:28.714Z,96770.28
2017-10-28T16:04:54.803Z,96773.16
2017-10-28T16:07:20.922Z,96773.62
2017-10-28T16:09:46.980Z,96783.48
2017-10-28T16:12:13.114Z,96783.22
2017-10-28T16:14:39.189Z,96780.37
2017-10-28T16:17:05.290Z,96778.96
2017-10-28T16:19:31.379Z,96777.41
2017-10-28T16:21:57.479Z,96774.81
2017-10-28T16:24:23.578Z,96772.86
2017-10-28T16:26:49.644Z,96764.97
2017-10-28T16:29:15.747Z,96772.33
2017-10-28T16:31:41.848Z,96777.80
2017-10-28T16:34:07.896Z,96770.69
2017-10-28T16:36:34.084Z,96761.68
2017-10-28T16:39:00.216Z,96751.09
2017-10-28T16:41:26.298Z,96755.88
2017-10-28T16:43:52.395Z,96766.73
2017-10-28T16:46:18.479Z,96758.38
2017-10-28T16:48:44.728Z,96754.20
2017-10-28T16:51:10.830Z,96761.37
2017-10-28T16:53:36.932Z,96760.09
2017-10-28T16:56:03.055Z,96755.90
2017-10-28T16:58:29.174Z,96759.65
2017-10-28T17:00:55.285Z,96754.91
2017-10-28T17:03:21.377Z,96747.75
2017-10-28T17:05:47.486Z,96742.09
2017-10-28T17:08:13.610Z,96742.94
2017-10-28T17:10:39.698Z,96736.16
2017-10-28T17:13:05.804Z,96726.85
2017-10-28T17:15:31.935Z,96730.05
2017-10-28T17:17:58.118Z,96737.23
2017-10-28T17:20:24.220Z,96734.92
2017-10-28T17:22:50.350Z,96739.40
2017-10-28T17:25:16.418Z,96745.20
2017-10-28T17:27:42.601Z,96730.55
2017-10-28T17:30:08.718Z,96748.83
2017-10-28T17:32:34.841Z,96757.83
2017-10-28T17:35:00.992Z,96768.50
2017-10-28T17:37:27.070Z,96771.84
2017-10-28T17:39:53.180Z,96759.33
2017-10-28T17:42:20.065Z,96761.72
2017-10-28T17:44:46.186Z,96763.58
2017-10-28T17:47:12.314Z,96750.25
2017-10-28T17:49:38.420Z,96763.90
2017-10-28T17:52:04.496Z,96764.83
2017-10-28T17:54:30.618Z,96762.04
2017-10-28T17:56:56.803Z,96760.81
2017-10-28T17:59:22.891Z,96756.30
2017-10-28T18:01:48.942Z,96745.08
2017-10-28T18:04:15.199Z,96734.54
2017-10-28T18:06:41.304Z,96742.89
2017-10-28T18:09:07.465Z,96735.92
2017-10-28T18:11:33.607Z,96725.91
2017-10-28T18:13:59.722Z,96716.00
2017-10-28T18:16:25.823Z,96705.55
2017-10-28T18:18:51.891Z,96699.28
2017-10-28T18:21:18.044Z,96701.97
2017-10-28T18:23:44.167Z,96700.42
2017-10-28T18:26:10.310Z,96702.52
2017-10-28T18:28:36.466Z,96706.16
2017-10-28T18:31:02.624Z,96699.58
2017-10-28T18:33:28.728Z,96709.20
2017-10-28T18:35:54.864Z,96711.84
2017-10-28T18:38:21.002Z,96709.27
2017-10-28T18:40:47.109Z,96697.03
2017-10-28T18:43:13.229Z,96695.09
2017-10-28T18:45:39.617Z,96684.02
2017-10-28T18:48:05.738Z,96668.61
2017-10-28T18:50:32.026Z,96666.70
2017-10-28T18:52:58.190Z,96683.04
2017-10-28T18:55:24.380Z,96672.27
2017-10-28T18:57:50.559Z,96666.23
2017-10-28T19:00:16.744Z,96651.44
2017-10-28T19:02:42.883Z,96640.89
2017-10-28T19:05:09.058Z,96639.50
2017-10-28T19:07:35.253Z,96651.73
2017-10-28T19:10:01.588Z,96646.06
2017-10-28T19:12:27.765Z,96643.86
2017-10-28T19:14:53.885Z,96636.65
2017-10-28T19:17:20.038Z,96619.44
2017-10-28T19:19:46.173Z,96614.48
2017-10-28T19:22:13.151Z,96624.72
2017-10-28T19:24:39.326Z,96605.83
2017-10-28T19:27:05.445Z,96603.05
2017-10-28T19:29:31.567Z,96597.36
2017-10-28T19:31:57.685Z,96603.11
2017-10-28T19:34:23.808Z,96601.80
2017-10-28T19:36:50.041Z,96588.23
2017-10-28T19:39:16.130Z,96578.70
2017-10-28T19:41:42.352Z,96576.09
2017-10-28T19:44:08.594Z,96576.29
2017-10-28T19:46:34.753Z,96581.48
2017-10-28T19:49:00.973Z,96589.33
2017-10-28T19:51:27.163Z,96593.27
2017-10-28T19:53:53.424Z,96608.52
2017-10-28T19:56:19.580Z,96605.50
2017-10-28T19:58:45.745Z,96598.49
2017-10-28T20:01:11.916Z,96589.47
2017-10-28T20:03:38.078Z,96584.51
2017-10-28T20:06:04.234Z,96568.39
2017-10-28T20:08:30.370Z,96555.09
2017-10-28T20:10:56.472Z,96546.38
2017-10-28T20:13:22.599Z,96551.55
2017-10-28T20:15:48.782Z,96554.50
2017-10-28T20:18:14.919Z,96545.95
2017-10-28T20:20:41.033Z,96534.55
2017-10-28T20:23:07.069Z,96540.71
2017-10-28T20:25:33.164Z,96529.27
2017-10-28T20:27:59.255Z,96523.48
2017-10-28T20:30:25.357Z,96515.05
2017-10-28T20:32:51.454Z,96500.97
2017-10-28T20:35:17.831Z,96499.80
2017-10-28T20:37:43.923Z,96485.53
2017-10-28T20:40:10.035Z,96481.00
2017-10-28T20:42:36.118Z,96480.20
2017-10-28T20:45:02.286Z,96496.69
2017-10-28T20:47:28.415Z,96483.23
2017-10-28T20:49:54.492Z,96467.91
2017-10-28T20:52:20.591Z,96465.36
2017-10-28T20:57:19.482Z,96429.06
2017-10-28T20:59:45.586Z,96451.09
2017-10-28T21:02:11.667Z,96437.78
2017-10-28T21:04:37.759Z,96447.99
2017-10-28T21:07:03.846Z,96461.57
2017-10-28T21:09:30.364Z,96438.01
2017-10-28T21:11:56.476Z,96419.74
2017-10-28T21:14:22.642Z,96406.31
2017-10-28T21:16:48.748Z,96398.42
2017-10-28T21:19:14.835Z,96382.48
2017-10-28T21:21:40.940Z,96362.86
2017-10-28T21:24:07.006Z,96373.14
2017-10-28T21:26:33.083Z,96358.83
2017-10-28T21:28:59.225Z,96358.41
2017-10-28T21:31:25.310Z,96361.66
2017-10-28T21:33:51.389Z,96358.72
2017-10-28T21:36:17.466Z,96349.91
2017-10-28T21:38:43.555Z,96336.98
2017-10-28T21:41:09.631Z,96331.88
2017-10-28T21:43:35.715Z,96318.27
2017-10-28T21:46:01.786Z,96321.44
2017-10-28T21:48:27.859Z,96306.81
2017-10-28T21:50:53.950Z,96299.31
2017-10-28T21:53:20.003Z,96277.58
2017-10-28T21:55:46.048Z,96292.12
2017-10-28T21:58:12.133Z,96262.81
2017-10-28T22:00:38.242Z,96259.25
2017-10-28T22:03:04.283Z,96256.00
2017-10-28T22:05:30.370Z,96246.10
2017-10-28T22:07:56.451Z,96240.77
2017-10-28T22:10:22.606Z,96225.45
2017-10-28T22:12:48.742Z,96214.00
2017-10-28T22:15:14.823Z,96189.18
2017-10-28T22:17:40.982Z,96190.27
2017-10-28T22:20:07.028Z,96198.38
2017-10-28T22:22:33.110Z,96166.13
2017-10-28T22:24:59.219Z,96172.39
2017-10-28T22:27:25.246Z,96165.92
2017-10-28T22:29:51.299Z,96164.73
2017-10-28T22:32:17.426Z,96155.01
2017-10-28T22:34:43.542Z,96158.80
2017-10-28T22:37:16.563Z,96158.95
2017-10-28T22:39:42.667Z,96152.77
2017-10-28T22:42:08.745Z,96137.21
2017-10-28T22:44:34.909Z,96142.24
2017-10-28T22:47:01.025Z,96133.97
2017-10-28T22:49:27.110Z,96112.84
2017-10-28T22:51:53.164Z,96135.73
2017-10-28T22:54:19.267Z,96134.36
2017-10-28T22:56:45.363Z,96126.00
2017-10-28T22:59:11.494Z,96122.21
2017-10-28T23:01:37.594Z,96108.90
2017-10-28T23:04:03.695Z,96094.44
2017-10-28T23:06:29.766Z,96083.98
2017-10-28T23:08:55.850Z,96088.24
2017-10-28T23:11:21.978Z,96078.72
2017-10-28T23:13:48.035Z,96071.13
2017-10-28T23:16:14.083Z,96051.88
2017-10-28T23:18:40.186Z,96053.55
2017-10-28T23:21:06.274Z,96052.47
2017-10-28T23:23:32.382Z,96040.08
2017-10-28T23:25:58.520Z,96035.44
2017-10-28T23:28:24.599Z,96040.47
2017-10-28T23:30:50.710Z,96038.55
2017-10-28T23:33:16.763Z,96010.47
2017-10-28T23:35:42.899Z,96002.65
2017-10-28T23:38:09.015Z,96003.64
2017-10-28T23:40:35.082Z,96005.73
2017-10-28T23:43:01.237Z,96000.24
2017-10-28T23:45:27.377Z,95981.83
2017-10-28T23:47:53.447Z,95983.91
2017-10-28T23:50:19.538Z,95988.25
2017-10-28T23:52:45.650Z,95968.52
2017-10-28T23:55:11.746Z,95963.93
2017-10-28T23:57:37.830Z,95950.45
